createdAt,value
2018-04-17T00:00:32.445Z,91.00
2018-04-17T00:02:58.732Z,91.20
2018-04-17T00:05:25.009Z,91.00
2018-04-17T00:07:51.354Z,91.00
2018-04-17T00:10:17.584Z,91.10
2018-04-17T00:12:43.811Z,91.20
2018-04-17T00:15:10.819Z,91.10
2018-04-17T00:17:37.191Z,91.10
2018-04-17T00:20:03.446Z,91.10
2018-04-17T00:22:30.471Z,91.10
2018-04-17T00:24:57.581Z,91.10
2018-04-17T00:27:23.948Z,91.10
2018-04-17T00:29:50.175Z,91.20
2018-04-17T00:32:17.206Z,91.10
2018-04-17T00:34:43.434Z,91.10
2018-04-17T00:37:09.913Z,91.10
2018-04-17T00:39:36.214Z,91.20
2018-04-17T00:42:02.505Z,91.10
2018-04-17T00:44:28.759Z,91.30
2018-04-17T00:46:55.061Z,91.20
2018-04-17T00:49:21.271Z,91.20
2018-04-17T00:51:48.286Z,91.30
2018-04-17T00:54:16.109Z,91.30
2018-04-17T00:56:42.328Z,91.20
2018-04-17T00:59:08.553Z,91.20
2018-04-17T01:01:34.925Z,91.30
2018-04-17T01:04:01.383Z,91.30
2018-04-17T01:06:27.621Z,91.30
2018-04-17T01:08:54.121Z,91.20
2018-04-17T01:11:20.485Z,91.20
2018-04-17T01:13:47.509Z,91.50
2018-04-17T01:16:13.734Z,91.10
2018-04-17T01:18:39.987Z,91.20
2018-04-17T01:21:07.012Z,91.20
2018-04-17T01:23:33.341Z,91.20
2018-04-17T01:25:59.587Z,91.20
2018-04-17T01:28:26.559Z,91.30
2018-04-17T01:30:53.587Z,91.20
2018-04-17T01:33:21.357Z,91.20
2018-04-17T01:35:47.600Z,91.20
2018-04-17T01:38:14.633Z,91.30
2018-04-17T01:40:41.687Z,91.70
2018-04-17T01:43:08.652Z,91.60
2018-04-17T01:45:34.951Z,91.20
2018-04-17T01:48:01.153Z,91.20
2018-04-17T01:50:27.397Z,91.20
2018-04-17T01:52:53.729Z,91.20
2018-04-17T01:55:20.792Z,91.10
2018-04-17T01:57:47.787Z,91.30
2018-04-17T02:00:14.016Z,91.30
2018-04-17T02:02:40.310Z,91.30
2018-04-17T02:05:07.563Z,91.60
2018-04-17T02:07:34.706Z,91.40
2018-04-17T02:10:01.797Z,91.30
2018-04-17T02:12:28.069Z,91.30
2018-04-17T02:14:54.318Z,91.30
2018-04-17T02:17:21.342Z,91.80
2018-04-17T02:19:47.594Z,91.40
2018-04-17T02:22:14.617Z,92.00
2018-04-17T02:24:40.873Z,91.60
2018-04-17T02:27:07.909Z,91.40
2018-04-17T02:29:34.880Z,91.40
2018-04-17T02:32:01.834Z,91.30
2018-04-17T02:34:28.904Z,91.30
2018-04-17T02:36:55.129Z,91.30
2018-04-17T02:39:28.469Z,91.30
2018-04-17T02:41:54.731Z,91.30
2018-04-17T02:44:21.868Z,91.30
2018-04-17T02:46:48.104Z,91.30
2018-04-17T02:49:15.149Z,91.30
2018-04-17T02:51:42.276Z,91.20
2018-04-17T02:54:08.490Z,91.20
2018-04-17T02:56:34.739Z,91.40
2018-04-17T02:59:01.780Z,91.50
2018-04-17T03:01:27.999Z,91.50
2018-04-17T03:03:54.342Z,91.40
2018-04-17T03:06:20.677Z,91.30
2018-04-17T03:08:46.960Z,91.20
2018-04-17T03:11:13.240Z,91.30
2018-04-17T03:13:39.886Z,91.40
2018-04-17T03:16:06.828Z,91.80
2018-04-17T03:18:33.088Z,91.80
2018-04-17T03:20:59.345Z,92.40
2018-04-17T03:23:25.578Z,91.40
2018-04-17T03:25:51.883Z,91.40
2018-04-17T03:28:18.801Z,91.40
2018-04-17T03:30:45.797Z,91.40
2018-04-17T03:33:12.028Z,91.40
2018-04-17T03:35:39.226Z,91.40
2018-04-17T03:38:05.820Z,91.50
2018-04-17T03:40:32.051Z,91.50
2018-04-17T03:42:58.502Z,91.80
2018-04-17T03:45:24.777Z,92.00
2018-04-17T03:47:51.065Z,91.40
2018-04-17T03:50:17.366Z,91.60
2018-04-17T03:52:43.668Z,91.40
2018-04-17T03:55:10.744Z,91.30
2018-04-17T03:57:37.034Z,91.30
2018-04-17T04:00:04.192Z,91.40
2018-04-17T04:02:31.197Z,91.30
2018-04-17T04:04:57.453Z,91.20
2018-04-17T04:07:24.413Z,91.40
2018-04-17T04:09:51.427Z,91.50
2018-04-17T04:12:17.708Z,91.40
2018-04-17T04:14:43.918Z,91.30
2018-04-17T04:17:23.304Z,91.40
2018-04-17T04:20:02.110Z,91.30
2018-04-17T04:22:40.620Z,91.30
2018-04-17T04:28:11.274Z,91.20
2018-04-17T04:30:37.469Z,91.30
2018-04-17T04:33:04.453Z,91.90
2018-04-17T04:35:30.697Z,91.80
2018-04-17T04:37:56.915Z,91.50
2018-04-17T04:40:23.213Z,91.50
2018-04-17T04:42:50.182Z,91.70
2018-04-17T04:45:16.508Z,91.70
2018-04-17T04:47:42.729Z,92.80
2018-04-17T04:50:09.315Z,92.00
2018-04-17T04:52:35.629Z,92.70
2018-04-17T04:55:01.906Z,91.90
2018-04-17T04:57:28.585Z,91.80
2018-04-17T04:59:54.794Z,91.80
2018-04-17T05:02:21.873Z,91.70
2018-04-17T05:04:48.761Z,91.70
2018-04-17T05:07:14.955Z,92.70
2018-04-17T05:09:41.650Z,91.80
2018-04-17T05:12:07.997Z,92.40
2018-04-17T05:14:34.497Z,92.00
2018-04-17T05:17:01.477Z,91.90
2018-04-17T05:19:28.779Z,91.60
2018-04-17T05:22:02.806Z,92.30
2018-04-17T05:24:29.129Z,92.60
2018-04-17T05:26:55.356Z,92.50
2018-04-17T05:29:21.621Z,92.00
2018-04-17T05:31:48.606Z,91.70
2018-04-17T05:34:14.900Z,91.60
2018-04-17T05:36:41.538Z,91.70
2018-04-17T05:39:08.499Z,91.80
2018-04-17T05:41:35.463Z,91.70
2018-04-17T05:44:01.697Z,91.70
2018-04-17T05:46:27.992Z,91.70
2018-04-17T05:48:55.131Z,91.70
2018-04-17T05:51:21.416Z,91.60
2018-04-17T05:53:47.758Z,91.60
2018-04-17T05:56:14.123Z,91.70
2018-04-17T05:58:40.383Z,91.60
2018-04-17T06:01:06.794Z,91.60
2018-04-17T06:03:34.203Z,91.90
2018-04-17T06:06:00.667Z,91.60
2018-04-17T06:08:26.957Z,91.60
2018-04-17T06:10:53.438Z,91.70
2018-04-17T06:13:21.239Z,91.70
2018-04-17T06:15:47.490Z,91.60
2018-04-17T06:18:13.709Z,91.30
2018-04-17T06:20:40.215Z,91.30
2018-04-17T06:23:07.214Z,91.20
2018-04-17T06:25:33.667Z,91.10
2018-04-17T06:27:59.904Z,90.80
2018-04-17T06:30:27.908Z,90.00
2018-04-17T06:32:54.160Z,90.00
2018-04-17T06:35:20.423Z,89.00
2018-04-17T06:37:46.668Z,86.20
2018-04-17T06:40:14.855Z,83.70
2018-04-17T06:42:41.812Z,83.80
2018-04-17T06:45:08.829Z,83.40
2018-04-17T06:47:36.463Z,84.00
2018-04-17T06:50:03.402Z,85.00
2018-04-17T06:52:29.636Z,85.00
2018-04-17T06:54:55.880Z,85.30
2018-04-17T06:57:22.107Z,86.70
2018-04-17T06:59:48.398Z,90.60
2018-04-17T07:02:14.673Z,90.00
2018-04-17T07:04:41.016Z,90.40
2018-04-17T07:07:07.237Z,90.10
2018-04-17T07:09:33.521Z,90.40
2018-04-17T07:11:59.747Z,90.00
2018-04-17T07:14:25.965Z,90.30
2018-04-17T07:16:53.051Z,89.60
2018-04-17T07:19:19.319Z,89.60
2018-04-17T07:21:45.584Z,89.40
2018-04-17T07:24:11.873Z,89.10
2018-04-17T07:26:38.390Z,89.10
2018-04-17T07:29:04.721Z,88.10
2018-04-17T07:31:30.998Z,88.20
2018-04-17T07:33:58.022Z,87.50
2018-04-17T07:36:24.411Z,87.40
2018-04-17T07:38:50.817Z,86.40
2018-04-17T07:41:17.088Z,86.60
2018-04-17T07:43:43.492Z,86.00
2018-04-17T07:46:09.711Z,86.10
2018-04-17T07:48:45.100Z,85.40
2018-04-17T07:51:11.449Z,85.90
2018-04-17T07:53:37.678Z,85.80
2018-04-17T07:56:03.953Z,85.20
2018-04-17T07:58:30.407Z,84.70
2018-04-17T08:00:56.639Z,85.10
2018-04-17T08:03:22.871Z,85.00
2018-04-17T08:05:49.412Z,84.80
2018-04-17T08:08:15.639Z,84.40
2018-04-17T08:10:41.880Z,84.50
2018-04-17T08:13:08.090Z,83.80
2018-04-17T08:15:34.469Z,84.20
2018-04-17T08:18:01.539Z,83.90
2018-04-17T08:20:27.769Z,83.30
2018-04-17T08:22:54.068Z,82.40
2018-04-17T08:25:20.326Z,81.70
2018-04-17T08:27:47.308Z,81.20
2018-04-17T08:30:13.605Z,81.10
2018-04-17T08:32:40.696Z,81.40
2018-04-17T08:35:06.970Z,81.30
2018-04-17T08:37:34.035Z,80.60
2018-04-17T08:40:01.109Z,81.30
2018-04-17T08:42:29.454Z,81.00
2018-04-17T08:44:56.472Z,80.10
2018-04-17T08:47:22.992Z,79.70
2018-04-17T08:49:49.254Z,80.20
2018-04-17T08:52:16.241Z,82.10
2018-04-17T08:54:42.493Z,81.60
2018-04-17T08:57:08.764Z,80.20
2018-04-17T08:59:35.791Z,79.00
2018-04-17T09:02:02.793Z,78.90
2018-04-17T09:04:29.023Z,78.30
2018-04-17T09:06:55.253Z,79.40
2018-04-17T09:09:21.472Z,77.30
2018-04-17T09:11:48.175Z,78.90
2018-04-17T09:14:14.364Z,76.20
2018-04-17T09:16:40.593Z,74.80
2018-04-17T09:19:06.974Z,75.40
2018-04-17T09:21:33.977Z,74.80
2018-04-17T09:24:01.003Z,69.60
2018-04-17T09:26:28.240Z,72.80
2018-04-17T09:28:55.258Z,72.90
2018-04-17T09:31:21.554Z,72.80
2018-04-17T09:33:47.901Z,70.50
2018-04-17T09:36:14.215Z,71.20
2018-04-17T09:38:40.439Z,72.00
2018-04-17T09:41:06.662Z,72.70
2018-04-17T09:43:32.888Z,70.90
2018-04-17T09:45:59.183Z,69.70
2018-04-17T09:48:26.469Z,67.90
2018-04-17T09:50:52.856Z,67.70
2018-04-17T09:53:19.110Z,66.30
2018-04-17T09:55:46.429Z,67.50
2018-04-17T09:58:12.722Z,67.10
2018-04-17T10:00:45.110Z,63.80
2018-04-17T10:03:11.363Z,59.70
2018-04-17T10:05:37.684Z,61.30
2018-04-17T10:08:03.952Z,61.60
2018-04-17T10:10:30.925Z,65.40
2018-04-17T10:12:57.328Z,65.40
2018-04-17T10:15:24.409Z,63.90
2018-04-17T10:17:50.727Z,63.80
2018-04-17T10:20:17.144Z,63.20
2018-04-17T10:22:44.088Z,68.80
2018-04-17T10:25:10.635Z,68.60
2018-04-17T10:27:37.058Z,60.40
2018-04-17T10:30:04.072Z,62.00
2018-04-17T10:32:31.246Z,61.80
2018-04-17T10:34:57.670Z,62.20
2018-04-17T10:37:23.881Z,62.70
2018-04-17T10:39:50.521Z,61.70
2018-04-17T10:42:16.736Z,62.70
2018-04-17T10:44:43.004Z,63.20
2018-04-17T10:47:09.456Z,60.50
2018-04-17T10:49:36.495Z,67.00
2018-04-17T10:52:03.504Z,65.40
2018-04-17T10:54:29.765Z,65.90
2018-04-17T10:56:56.728Z,62.20
2018-04-17T10:59:23.765Z,59.80
2018-04-17T11:01:50.911Z,63.40
2018-04-17T11:04:17.937Z,60.40
2018-04-17T11:06:44.205Z,60.00
2018-04-17T11:09:11.198Z,63.40
2018-04-17T11:11:37.593Z,63.20
2018-04-17T11:14:03.869Z,63.30
2018-04-17T11:16:30.228Z,61.80
2018-04-17T11:18:56.454Z,64.10
2018-04-17T11:21:22.726Z,65.40
2018-04-17T11:23:49.024Z,63.50
2018-04-17T11:26:16.140Z,61.60
2018-04-17T11:28:42.388Z,61.70
2018-04-17T11:31:09.432Z,62.30
2018-04-17T11:33:36.442Z,68.10
2018-04-17T11:36:02.798Z,67.70
2018-04-17T11:38:29.040Z,62.40
2018-04-17T11:40:55.429Z,67.50
2018-04-17T11:43:21.868Z,62.20
2018-04-17T11:45:48.250Z,64.40
2018-04-17T11:48:14.465Z,62.20
2018-04-17T11:50:40.797Z,71.30
2018-04-17T11:53:07.094Z,71.00
2018-04-17T11:55:33.348Z,67.00
2018-04-17T11:57:59.616Z,64.10
2018-04-17T12:00:26.574Z,64.60
2018-04-17T12:02:52.962Z,64.60
2018-04-17T12:05:19.190Z,61.40
2018-04-17T12:07:45.480Z,60.10
2018-04-17T12:10:11.755Z,64.00
2018-04-17T12:12:38.032Z,64.30
2018-04-17T12:15:04.273Z,61.70
2018-04-17T12:17:30.608Z,62.30
2018-04-17T12:19:56.833Z,63.00
2018-04-17T12:22:23.120Z,63.00
2018-04-17T12:24:49.461Z,63.00
2018-04-17T12:27:16.471Z,63.60
2018-04-17T12:29:42.785Z,63.50
2018-04-17T12:32:09.027Z,62.60
2018-04-17T12:34:35.294Z,66.60
2018-04-17T12:37:02.278Z,68.30
2018-04-17T12:39:28.917Z,68.50
2018-04-17T12:41:55.147Z,66.30
2018-04-17T12:44:21.443Z,68.60
2018-04-17T12:46:48.551Z,66.80
2018-04-17T12:49:14.876Z,66.50
2018-04-17T12:51:41.145Z,64.40
2018-04-17T12:54:08.209Z,69.40
2018-04-17T12:56:34.979Z,69.40
2018-04-17T12:59:01.235Z,67.00
2018-04-17T13:01:27.516Z,66.80
2018-04-17T13:03:53.842Z,68.80
2018-04-17T13:06:20.078Z,67.40
2018-04-17T13:08:46.335Z,68.10
2018-04-17T13:11:12.740Z,65.20
2018-04-17T13:13:39.129Z,68.90
2018-04-17T13:16:06.143Z,71.80
2018-04-17T13:18:32.521Z,71.90
2018-04-17T13:20:58.753Z,68.50
2018-04-17T13:23:25.006Z,68.30
2018-04-17T13:25:52.132Z,65.60
2018-04-17T13:28:18.510Z,65.70
2018-04-17T13:30:44.773Z,66.60
2018-04-17T13:33:11.025Z,66.80
2018-04-17T13:35:37.272Z,64.20
2018-04-17T13:38:04.258Z,61.70
2018-04-17T13:40:30.484Z,61.80
2018-04-17T13:42:56.735Z,64.40
2018-04-17T13:45:23.125Z,67.90
2018-04-17T13:47:49.494Z,69.80
2018-04-17T13:50:15.742Z,66.70
2018-04-17T13:52:42.045Z,69.50
2018-04-17T13:55:08.298Z,68.40
2018-04-17T13:57:34.549Z,67.70
2018-04-17T14:00:01.653Z,69.20
2018-04-17T14:02:27.910Z,69.40
2018-04-17T14:04:54.168Z,66.70
2018-04-17T14:07:21.209Z,69.00
2018-04-17T14:09:48.659Z,70.90
2018-04-17T14:12:15.751Z,70.90
2018-04-17T14:14:42.028Z,70.10
2018-04-17T14:17:09.110Z,69.50
2018-04-17T14:19:35.401Z,68.50
2018-04-17T14:22:01.648Z,70.50
2018-04-17T14:24:28.644Z,69.00
2018-04-17T14:26:54.898Z,67.90
2018-04-17T14:29:21.168Z,69.90
2018-04-17T14:31:48.170Z,68.80
2018-04-17T14:34:14.475Z,68.80
2018-04-17T14:36:41.148Z,67.50
2018-04-17T14:39:07.534Z,71.20
2018-04-17T14:41:34.029Z,69.80
2018-04-17T14:44:00.334Z,72.30
2018-04-17T14:46:26.652Z,73.90
2018-04-17T14:48:52.889Z,65.80
2018-04-17T14:51:19.156Z,69.10
2018-04-17T14:53:45.385Z,64.90
2018-04-17T14:56:11.793Z,70.50
2018-04-17T14:58:38.205Z,68.40
2018-04-17T15:01:04.570Z,67.30
2018-04-17T15:03:30.859Z,68.70
2018-04-17T15:05:57.171Z,71.30
2018-04-17T15:08:23.417Z,69.90
2018-04-17T15:10:50.277Z,71.00
2018-04-17T15:13:16.514Z,69.30
2018-04-17T15:15:42.999Z,66.40
2018-04-17T15:18:10.139Z,67.10
2018-04-17T15:20:36.497Z,67.00
2018-04-17T15:23:02.793Z,67.50
2018-04-17T15:25:29.049Z,61.00
2018-04-17T15:27:56.248Z,59.50
2018-04-17T15:30:22.561Z,59.60
2018-04-17T15:32:48.995Z,58.50
2018-04-17T15:35:15.252Z,59.80
2018-04-17T15:37:41.517Z,58.30
2018-04-17T15:40:08.529Z,60.80
2018-04-17T15:42:34.812Z,60.80
2018-04-17T15:45:01.049Z,57.80
2018-04-17T15:47:27.340Z,58.90
2018-04-17T15:49:53.715Z,63.70
2018-04-17T15:52:20.053Z,61.50
2018-04-17T15:54:46.351Z,64.70
2018-04-17T15:57:13.505Z,66.90
2018-04-17T15:59:40.570Z,66.90
2018-04-17T16:02:06.831Z,66.90
2018-04-17T16:04:33.064Z,62.20
2018-04-17T16:06:59.296Z,64.90
2018-04-17T16:09:25.600Z,61.50
2018-04-17T16:11:51.879Z,63.30
2018-04-17T16:14:18.158Z,62.50
2018-04-17T16:16:44.569Z,64.10
2018-04-17T16:19:20.054Z,67.00
2018-04-17T16:21:52.689Z,63.00
2018-04-17T16:24:19.124Z,60.50
2018-04-17T16:26:48.809Z,59.00
2018-04-17T16:29:15.053Z,59.00
2018-04-17T16:31:42.070Z,67.20
2018-04-17T16:34:08.393Z,66.90
2018-04-17T16:36:34.655Z,67.70
2018-04-17T16:39:00.965Z,67.70
2018-04-17T16:41:27.641Z,58.40
2018-04-17T16:43:54.647Z,63.90
2018-04-17T16:46:20.916Z,63.90
2018-04-17T16:48:47.956Z,64.40
2018-04-17T16:51:15.004Z,68.70
2018-04-17T16:53:41.509Z,68.60
2018-04-17T16:56:07.889Z,67.20
2018-04-17T16:58:34.218Z,67.30
2018-04-17T17:01:00.510Z,59.90
2018-04-17T17:03:26.741Z,63.30
2018-04-17T17:05:53.073Z,64.60
2018-04-17T17:08:19.388Z,67.90
2018-04-17T17:10:45.698Z,59.70
2018-04-17T17:13:12.428Z,67.30
2018-04-17T17:15:38.819Z,61.50
2018-04-17T17:18:05.817Z,60.00
2018-04-17T17:20:32.208Z,60.00
2018-04-17T17:22:59.258Z,63.50
2018-04-17T17:25:26.632Z,64.40
2018-04-17T17:27:52.945Z,64.40
2018-04-17T17:30:19.974Z,63.00
2018-04-17T17:32:46.238Z,62.60
2018-04-17T17:35:12.660Z,65.90
2018-04-17T17:37:39.003Z,63.10
2018-04-17T17:40:05.428Z,63.60
2018-04-17T17:42:32.640Z,65.30
2018-04-17T17:44:58.889Z,65.30
2018-04-17T17:47:25.240Z,60.90
2018-04-17T17:49:52.272Z,64.70
2018-04-17T17:52:18.555Z,64.30
2018-04-17T17:54:44.909Z,65.80
2018-04-17T17:57:11.302Z,64.30
2018-04-17T17:59:37.547Z,62.90
2018-04-17T18:02:03.903Z,63.30
2018-04-17T18:04:30.253Z,65.20
2018-04-17T18:06:56.736Z,64.60
2018-04-17T18:09:23.130Z,65.50
2018-04-17T18:11:50.640Z,65.40
2018-04-17T18:14:16.932Z,65.50
2018-04-17T18:16:43.928Z,66.20
2018-04-17T18:19:10.281Z,66.20
2018-04-17T18:21:36.545Z,63.50
2018-04-17T18:24:02.905Z,68.10
2018-04-17T18:26:29.298Z,63.50
2018-04-17T18:28:55.773Z,67.80
2018-04-17T18:31:22.330Z,67.80
2018-04-17T18:33:48.718Z,64.70
2018-04-17T18:36:15.740Z,68.80
2018-04-17T18:38:42.201Z,68.80
2018-04-17T18:41:09.182Z,68.00
2018-04-17T18:43:35.513Z,68.20
2018-04-17T18:46:01.765Z,69.10
2018-04-17T18:48:28.076Z,68.80
2018-04-17T18:50:54.319Z,69.60
2018-04-17T18:53:20.683Z,68.80
2018-04-17T18:55:47.777Z,67.30
2018-04-17T18:58:14.061Z,67.40
2018-04-17T19:00:41.075Z,66.40
2018-04-17T19:03:07.326Z,66.40
2018-04-17T19:05:33.561Z,67.30
2018-04-17T19:08:00.583Z,69.80
2018-04-17T19:10:26.860Z,68.70
2018-04-17T19:12:53.850Z,71.70
2018-04-17T19:15:20.281Z,71.70
2018-04-17T19:17:46.607Z,67.30
2018-04-17T19:20:12.889Z,69.50
2018-04-17T19:22:39.948Z,72.10
2018-04-17T19:25:07.702Z,75.00
2018-04-17T19:27:34.682Z,70.80
2018-04-17T19:30:01.007Z,70.70
2018-04-17T19:32:27.345Z,73.00
2018-04-17T19:34:53.595Z,73.70
2018-04-17T19:37:19.912Z,74.00
2018-04-17T19:39:46.269Z,73.70
2018-04-17T19:42:12.521Z,74.40
2018-04-17T19:44:38.763Z,73.70
2018-04-17T19:47:05.746Z,73.40
2018-04-17T19:49:32.064Z,72.90
2018-04-17T19:51:58.294Z,75.00
2018-04-17T19:54:25.424Z,74.90
2018-04-17T19:56:53.169Z,77.30
2018-04-17T19:59:19.439Z,77.20
2018-04-17T20:01:45.711Z,76.60
2018-04-17T20:04:11.963Z,78.70
2018-04-17T20:06:38.253Z,78.90
2018-04-17T20:09:04.635Z,78.70
2018-04-17T20:11:30.967Z,78.00
2018-04-17T20:13:57.264Z,78.60
2018-04-17T20:16:23.659Z,77.90
2018-04-17T20:18:50.320Z,77.90
2018-04-17T20:21:16.585Z,79.50
2018-04-17T20:23:42.868Z,81.00
2018-04-17T20:26:09.175Z,78.20
2018-04-17T20:28:36.221Z,79.20
2018-04-17T20:31:03.240Z,81.20
2018-04-17T20:33:29.524Z,81.20
2018-04-17T20:35:55.927Z,82.00
2018-04-17T20:38:23.214Z,80.90
2018-04-17T20:40:49.485Z,80.60
2018-04-17T20:43:15.809Z,80.80
2018-04-17T20:45:42.094Z,80.60
2018-04-17T20:48:08.540Z,82.30
2018-04-17T20:50:34.807Z,80.50
2018-04-17T20:53:01.268Z,81.70
2018-04-17T20:55:28.540Z,81.60
2018-04-17T20:57:54.893Z,81.60
2018-04-17T21:00:21.181Z,82.40
2018-04-17T21:02:48.186Z,83.70
2018-04-17T21:05:14.488Z,83.30
2018-04-17T21:07:40.720Z,81.80
2018-04-17T21:10:07.083Z,82.90
2018-04-17T21:12:33.370Z,82.60
2018-04-17T21:15:00.075Z,83.50
2018-04-17T21:17:26.389Z,82.70
2018-04-17T21:19:52.628Z,82.90
2018-04-17T21:22:18.910Z,82.70
2018-04-17T21:24:45.197Z,81.90
2018-04-17T21:27:11.457Z,83.80
2018-04-17T21:29:38.812Z,83.90
2018-04-17T21:32:05.789Z,83.60
2018-04-17T21:34:32.084Z,83.60
2018-04-17T21:36:59.154Z,82.50
2018-04-17T21:39:25.459Z,82.10
2018-04-17T21:41:52.612Z,83.50
2018-04-17T21:44:19.606Z,84.40
2018-04-17T21:46:45.916Z,84.30
2018-04-17T21:49:12.262Z,84.70
2018-04-17T21:51:45.550Z,84.50
2018-04-17T21:54:11.929Z,84.30
2018-04-17T21:56:38.341Z,84.40
2018-04-17T21:59:05.248Z,85.20
2018-04-17T22:01:31.500Z,84.30
2018-04-17T22:03:57.797Z,85.20
2018-04-17T22:06:24.847Z,85.20
2018-04-17T22:08:51.850Z,85.10
2018-04-17T22:11:18.175Z,85.10
2018-04-17T22:13:44.700Z,85.50
2018-04-17T22:16:10.953Z,84.30
2018-04-17T22:18:37.311Z,84.10
2018-04-17T22:21:04.322Z,85.70
2018-04-17T22:23:30.610Z,85.50
2018-04-17T22:25:56.860Z,85.80
2018-04-17T22:28:23.123Z,85.70
2018-04-17T22:30:49.552Z,85.50
2018-04-17T22:33:15.815Z,85.60
2018-04-17T22:35:42.833Z,85.80
2018-04-17T22:38:09.046Z,85.80
2018-04-17T22:40:35.323Z,85.90
2018-04-17T22:43:02.423Z,85.20
2018-04-17T22:45:28.729Z,85.00
2018-04-17T22:47:55.262Z,85.90
2018-04-17T22:50:21.587Z,85.90
2018-04-17T22:52:48.272Z,86.50
2018-04-17T22:55:14.541Z,85.80
2018-04-17T22:57:41.533Z,86.70
2018-04-17T23:00:07.834Z,86.50
2018-04-17T23:02:34.176Z,86.40
2018-04-17T23:05:00.833Z,84.80
2018-04-17T23:07:27.084Z,86.80
2018-04-17T23:09:53.325Z,86.20
2018-04-17T23:12:20.354Z,87.60
2018-04-17T23:14:46.696Z,86.70
2018-04-17T23:17:19.884Z,86.70
2018-04-17T23:19:47.224Z,86.80
2018-04-17T23:22:13.495Z,86.70
2018-04-17T23:24:40.517Z,86.90
2018-04-17T23:27:06.839Z,86.70
2018-04-17T23:29:33.046Z,86.70
2018-04-17T23:31:59.287Z,86.80
2018-04-17T23:34:25.539Z,87.20
2018-04-17T23:36:51.800Z,86.90
2018-04-17T23:39:18.096Z,87.20
2018-04-17T23:41:44.408Z,87.10
2018-04-17T23:44:10.654Z,87.00
2018-04-17T23:46:37.055Z,87.30
2018-04-17T23:49:03.344Z,87.10
2018-04-17T23:51:29.581Z,87.50
2018-04-17T23:53:55.845Z,87.10
2018-04-17T23:56:22.204Z,86.90
2018-04-17T23:58:48.472Z,87.10
